sensor_id;sensor_type;location;lat;lon;timestamp;temperature;humidity
1049;DHT22;513;51.444;7.196;2022-12-18T00:02:03;-1.90;99.90
1049;DHT22;513;51.444;7.196;2022-12-18T00:04:30;-2.00;99.90
1049;DHT22;513;51.444;7.196;2022-12-18T00:06:56;-2.00;99.90
1049;DHT22;513;51.444;7.196;2022-12-18T00:09:23;-2.00;99.90
1049;DHT22;513;51.444;7.196;2022-12-18T00:11:50;-1.90;99.90
1049;DHT22;513;51.444;7.196;2022-12-18T00:14:17;-1.90;99.90
1049;DHT22;513;51.444;7.196;2022-12-18T00:16:45;-1.90;99.90
1049;DHT22;513;51.444;7.196;2022-12-18T00:19:13;-1.80;99.90
1049;DHT22;513;51.444;7.196;2022-12-18T00:21:41;-1.80;99.90
1049;DHT22;513;51.444;7.196;2022-12-18T00:24:09;-1.80;96.00
1049;DHT22;513;51.444;7.196;2022-12-18T00:26:37;-2.00;99.90
1049;DHT22;513;51.444;7.196;2022-12-18T00:29:07;-1.80;99.90
1049;DHT22;513;51.444;7.196;2022-12-18T00:31:34;-1.80;1.00
1049;DHT22;513;51.444;7.196;2022-12-18T00:34:01;-1.80;1.00
1049;DHT22;513;51.444;7.196;2022-12-18T00:36:31;-1.80;1.00
1049;DHT22;513;51.444;7.196;2022-12-18T00:39:00;-1.80;1.00
1049;DHT22;513;51.444;7.196;2022-12-18T00:41:27;-2.00;1.00
1049;DHT22;513;51.444;7.196;2022-12-18T00:44:14;-2.00;8.40
1049;DHT22;513;51.444;7.196;2022-12-18T00:46:42;-1.80;1.00
1049;DHT22;513;51.444;7.196;2022-12-18T00:49:09;-1.80;1.00
1049;DHT22;513;51.444;7.196;2022-12-18T00:51:37;-1.80;1.00
1049;DHT22;513;51.444;7.196;2022-12-18T00:54:03;-1.90;1.00
1049;DHT22;513;51.444;7.196;2022-12-18T00:56:30;-2.00;1.00
1049;DHT22;513;51.444;7.196;2022-12-18T00:58:57;-2.00;1.00
1049;DHT22;513;51.444;7.196;2022-12-18T01:01:24;-1.90;1.00
1049;DHT22;513;51.444;7.196;2022-12-18T01:03:50;-1.90;1.00
1049;DHT22;513;51.444;7.196;2022-12-18T01:06:17;-1.80;47.70
1049;DHT22;513;51.444;7.196;2022-12-18T01:08:45;-1.80;1.00
1049;DHT22;513;51.444;7.196;2022-12-18T01:11:13;-1.90;97.90
1049;DHT22;513;51.444;7.196;2022-12-18T01:13:40;-1.90;99.90
1049;DHT22;513;51.444;7.196;2022-12-18T01:16:07;-1.90;99.90
1049;DHT22;513;51.444;7.196;2022-12-18T01:18:34;-1.90;99.90
1049;DHT22;513;51.444;7.196;2022-12-18T01:21:05;-1.90;99.90
1049;DHT22;513;51.444;7.196;2022-12-18T01:23:32;-2.00;99.90
1049;DHT22;513;51.444;7.196;2022-12-18T01:26:04;-1.90;99.90
1049;DHT22;513;51.444;7.196;2022-12-18T01:28:31;-1.90;99.90
1049;DHT22;513;51.444;7.196;2022-12-18T01:30:57;-1.90;99.90
1049;DHT22;513;51.444;7.196;2022-12-18T01:33:24;-1.80;99.90
1049;DHT22;513;51.444;7.196;2022-12-18T01:35:51;-1.80;99.90
1049;DHT22;513;51.444;7.196;2022-12-18T01:38:17;-1.80;99.90
1049;DHT22;513;51.444;7.196;2022-12-18T01:40:44;-1.70;99.90
1049;DHT22;513;51.444;7.196;2022-12-18T01:43:12;-1.60;99.90
1049;DHT22;513;51.444;7.196;2022-12-18T01:45:39;-1.60;99.90
1049;DHT22;513;51.444;7.196;2022-12-18T01:48:06;-1.70;99.90
1049;DHT22;513;51.444;7.196;2022-12-18T01:50:36;-1.70;99.90
1049;DHT22;513;51.444;7.196;2022-12-18T01:53:07;-1.70;99.90
1049;DHT22;513;51.444;7.196;2022-12-18T01:55:38;-1.80;99.90
1049;DHT22;513;51.444;7.196;2022-12-18T01:58:07;-1.70;99.90
1049;DHT22;513;51.444;7.196;2022-12-18T02:00:35;-1.90;99.90
1049;DHT22;513;51.444;7.196;2022-12-18T02:03:02;-1.80;99.90
1049;DHT22;513;51.444;7.196;2022-12-18T02:05:36;-1.70;99.90
1049;DHT22;513;51.444;7.196;2022-12-18T02:08:10;-1.70;99.90
1049;DHT22;513;51.444;7.196;2022-12-18T02:10:45;-1.70;99.90
1049;DHT22;513;51.444;7.196;2022-12-18T02:13:19;-1.70;99.90
1049;DHT22;513;51.444;7.196;2022-12-18T02:15:54;-1.70;99.90
1049;DHT22;513;51.444;7.196;2022-12-18T02:18:26;-1.70;99.90
1049;DHT22;513;51.444;7.196;2022-12-18T02:21:00;-1.70;99.90
1049;DHT22;513;51.444;7.196;2022-12-18T02:23:44;-1.70;99.90
1049;DHT22;513;51.444;7.196;2022-12-18T02:26:18;-1.70;99.90
1049;DHT22;513;51.444;7.196;2022-12-18T02:28:49;-1.60;99.90
1049;DHT22;513;51.444;7.196;2022-12-18T02:31:19;-1.60;99.90
1049;DHT22;513;51.444;7.196;2022-12-18T02:33:48;-1.70;99.90
1049;DHT22;513;51.444;7.196;2022-12-18T02:36:16;-1.70;99.90
1049;DHT22;513;51.444;7.196;2022-12-18T02:38:45;-1.70;99.90
1049;DHT22;513;51.444;7.196;2022-12-18T02:41:13;-1.70;99.90
1049;DHT22;513;51.444;7.196;2022-12-18T02:43:46;-1.70;99.90
1049;DHT22;513;51.444;7.196;2022-12-18T02:46:25;-1.70;99.90
1049;DHT22;513;51.444;7.196;2022-12-18T02:48:57;-1.70;99.90
1049;DHT22;513;51.444;7.196;2022-12-18T02:51:29;-1.70;99.90
1049;DHT22;513;51.444;7.196;2022-12-18T02:54:00;-1.80;99.90
1049;DHT22;513;51.444;7.196;2022-12-18T02:56:34;-1.70;99.90
1049;DHT22;513;51.444;7.196;2022-12-18T02:59:07;-1.70;99.90
1049;DHT22;513;51.444;7.196;2022-12-18T03:01:38;-1.60;99.90
1049;DHT22;513;51.444;7.196;2022-12-18T03:04:11;-1.60;99.90
1049;DHT22;513;51.444;7.196;2022-12-18T03:06:43;-1.50;99.90
1049;DHT22;513;51.444;7.196;2022-12-18T03:09:14;-1.60;99.90
1049;DHT22;513;51.444;7.196;2022-12-18T03:11:47;-1.60;99.90
1049;DHT22;513;51.444;7.196;2022-12-18T03:14:35;-1.60;99.90
1049;DHT22;513;51.444;7.196;2022-12-18T03:17:06;-1.60;99.90
1049;DHT22;513;51.444;7.196;2022-12-18T03:19:34;-1.60;99.90
1049;DHT22;513;51.444;7.196;2022-12-18T03:22:03;-1.80;99.90
1049;DHT22;513;51.444;7.196;2022-12-18T03:24:33;-1.70;99.90
1049;DHT22;513;51.444;7.196;2022-12-18T03:27:06;-1.70;99.90
1049;DHT22;513;51.444;7.196;2022-12-18T03:29:38;-1.70;99.90
1049;DHT22;513;51.444;7.196;2022-12-18T03:32:10;-1.70;99.90
1049;DHT22;513;51.444;7.196;2022-12-18T03:34:40;-1.80;99.90
1049;DHT22;513;51.444;7.196;2022-12-18T03:37:07;-1.80;99.90
1049;DHT22;513;51.444;7.196;2022-12-18T03:39:36;-1.70;99.90
1049;DHT22;513;51.444;7.196;2022-12-18T03:42:07;-1.80;99.90
1049;DHT22;513;51.444;7.196;2022-12-18T03:44:42;-1.70;99.90
1049;DHT22;513;51.444;7.196;2022-12-18T03:47:14;-1.60;99.90
1049;DHT22;513;51.444;7.196;2022-12-18T03:49:47;-1.80;99.90
1049;DHT22;513;51.444;7.196;2022-12-18T03:52:20;-1.90;99.90
1049;DHT22;513;51.444;7.196;2022-12-18T03:54:49;-1.80;99.90
1049;DHT22;513;51.444;7.196;2022-12-18T03:57:19;-1.70;99.90
1049;DHT22;513;51.444;7.196;2022-12-18T03:59:49;-1.70;99.90
1049;DHT22;513;51.444;7.196;2022-12-18T04:02:18;-1.60;99.90
1049;DHT22;513;51.444;7.196;2022-12-18T04:04:45;-1.70;99.90
1049;DHT22;513;51.444;7.196;2022-12-18T04:07:14;-1.60;99.90
1049;DHT22;513;51.444;7.196;2022-12-18T04:09:43;-1.60;99.90
1049;DHT22;513;51.444;7.196;2022-12-18T04:12:12;-1.60;99.90
1049;DHT22;513;51.444;7.196;2022-12-18T04:14:38;-1.60;99.90
1049;DHT22;513;51.444;7.196;2022-12-18T04:17:06;-1.50;99.90
1049;DHT22;513;51.444;7.196;2022-12-18T04:19:33;-1.60;99.90
1049;DHT22;513;51.444;7.196;2022-12-18T04:21:59;-1.50;99.90
1049;DHT22;513;51.444;7.196;2022-12-18T04:24:26;-1.60;99.90
1049;DHT22;513;51.444;7.196;2022-12-18T04:26:54;-1.60;99.90
1049;DHT22;513;51.444;7.196;2022-12-18T04:29:20;-1.70;99.90
1049;DHT22;513;51.444;7.196;2022-12-18T04:31:47;-1.60;99.90
1049;DHT22;513;51.444;7.196;2022-12-18T04:34:15;-1.60;99.90
1049;DHT22;513;51.444;7.196;2022-12-18T04:36:42;-1.50;99.90
1049;DHT22;513;51.444;7.196;2022-12-18T04:39:09;-1.50;42.10
1049;DHT22;513;51.444;7.196;2022-12-18T04:41:36;-1.30;23.20
1049;DHT22;513;51.444;7.196;2022-12-18T04:44:03;-1.40;1.00
1049;DHT22;513;51.444;7.196;2022-12-18T04:46:29;-1.40;1.00
1049;DHT22;513;51.444;7.196;2022-12-18T04:48:56;-1.40;1.00
1049;DHT22;513;51.444;7.196;2022-12-18T04:51:24;-1.40;1.00
1049;DHT22;513;51.444;7.196;2022-12-18T04:53:51;-1.40;1.00
1049;DHT22;513;51.444;7.196;2022-12-18T04:56:18;-1.40;1.00
1049;DHT22;513;51.444;7.196;2022-12-18T04:58:45;-1.50;1.00
1049;DHT22;513;51.444;7.196;2022-12-18T05:01:14;-1.50;8.50
1049;DHT22;513;51.444;7.196;2022-12-18T05:03:41;-1.50;45.50
1049;DHT22;513;51.444;7.196;2022-12-18T05:06:08;-1.60;48.40
1049;DHT22;513;51.444;7.196;2022-12-18T05:08:36;-1.70;92.60
1049;DHT22;513;51.444;7.196;2022-12-18T05:11:05;-1.60;93.40
1049;DHT22;513;51.444;7.196;2022-12-18T05:13:32;-1.60;10.10
1049;DHT22;513;51.444;7.196;2022-12-18T05:15:59;-1.70;43.50
1049;DHT22;513;51.444;7.196;2022-12-18T05:18:26;-1.70;49.30
1049;DHT22;513;51.444;7.196;2022-12-18T05:20:54;-1.70;5.90
1049;DHT22;513;51.444;7.196;2022-12-18T05:23:22;-1.70;1.00
1049;DHT22;513;51.444;7.196;2022-12-18T05:25:52;-1.70;1.00
1049;DHT22;513;51.444;7.196;2022-12-18T05:28:19;-1.70;1.00
1049;DHT22;513;51.444;7.196;2022-12-18T05:30:48;-1.70;1.00
1049;DHT22;513;51.444;7.196;2022-12-18T05:33:16;-1.60;1.00
1049;DHT22;513;51.444;7.196;2022-12-18T05:35:42;-1.70;1.00
1049;DHT22;513;51.444;7.196;2022-12-18T05:38:09;-1.80;1.00
1049;DHT22;513;51.444;7.196;2022-12-18T05:40:36;-1.70;1.00
1049;DHT22;513;51.444;7.196;2022-12-18T05:43:04;-1.70;99.90
1049;DHT22;513;51.444;7.196;2022-12-18T05:45:31;-1.70;99.90
1049;DHT22;513;51.444;7.196;2022-12-18T05:47:57;-1.70;99.90
1049;DHT22;513;51.444;7.196;2022-12-18T05:50:24;-1.60;99.90
1049;DHT22;513;51.444;7.196;2022-12-18T05:52:50;-1.60;19.00
1049;DHT22;513;51.444;7.196;2022-12-18T05:55:17;-1.60;3.10
1049;DHT22;513;51.444;7.196;2022-12-18T05:57:44;-1.60;1.00
1049;DHT22;513;51.444;7.196;2022-12-18T06:00:13;-1.50;1.00
1049;DHT22;513;51.444;7.196;2022-12-18T06:02:41;-1.60;99.90
1049;DHT22;513;51.444;7.196;2022-12-18T06:05:07;-1.50;99.90
1049;DHT22;513;51.444;7.196;2022-12-18T06:07:34;-1.60;99.90
1049;DHT22;513;51.444;7.196;2022-12-18T06:10:01;-1.60;99.90
1049;DHT22;513;51.444;7.196;2022-12-18T06:12:27;-1.60;71.20
1049;DHT22;513;51.444;7.196;2022-12-18T06:14:54;-1.60;99.90
1049;DHT22;513;51.444;7.196;2022-12-18T06:17:22;-1.60;1.00
1049;DHT22;513;51.444;7.196;2022-12-18T06:19:49;-1.50;99.90
1049;DHT22;513;51.444;7.196;2022-12-18T06:22:15;-1.50;99.90
1049;DHT22;513;51.444;7.196;2022-12-18T06:24:42;-1.50;99.90
1049;DHT22;513;51.444;7.196;2022-12-18T06:27:09;-1.60;70.40
1049;DHT22;513;51.444;7.196;2022-12-18T06:29:35;-1.60;22.60
1049;DHT22;513;51.444;7.196;2022-12-18T06:32:02;-1.50;1.00
1049;DHT22;513;51.444;7.196;2022-12-18T06:34:30;-1.50;1.00
1049;DHT22;513;51.444;7.196;2022-12-18T06:36:57;-1.50;99.90
1049;DHT22;513;51.444;7.196;2022-12-18T06:39:24;-1.50;1.00
1049;DHT22;513;51.444;7.196;2022-12-18T06:41:51;-1.50;1.00
1049;DHT22;513;51.444;7.196;2022-12-18T06:44:17;-1.60;1.00
1049;DHT22;513;51.444;7.196;2022-12-18T06:46:44;-1.60;1.00
1049;DHT22;513;51.444;7.196;2022-12-18T06:49:11;-1.50;99.90
1049;DHT22;513;51.444;7.196;2022-12-18T06:51:39;-1.50;99.90
1049;DHT22;513;51.444;7.196;2022-12-18T06:54:06;-1.50;99.90
1049;DHT22;513;51.444;7.196;2022-12-18T06:56:33;-1.50;99.90
1049;DHT22;513;51.444;7.196;2022-12-18T06:59:00;-1.50;1.00
1049;DHT22;513;51.444;7.196;2022-12-18T07:01:27;-1.60;1.00
1049;DHT22;513;51.444;7.196;2022-12-18T07:03:54;-1.50;10.40
1049;DHT22;513;51.444;7.196;2022-12-18T07:06:23;-1.60;1.00
1049;DHT22;513;51.444;7.196;2022-12-18T07:08:53;-1.50;1.00
1049;DHT22;513;51.444;7.196;2022-12-18T07:11:20;-1.50;1.00
1049;DHT22;513;51.444;7.196;2022-12-18T07:13:46;-1.50;1.00
1049;DHT22;513;51.444;7.196;2022-12-18T07:16:15;-1.50;16.00
1049;DHT22;513;51.444;7.196;2022-12-18T07:18:41;-1.50;1.00
1049;DHT22;513;51.444;7.196;2022-12-18T07:21:10;-1.60;1.00
1049;DHT22;513;51.444;7.196;2022-12-18T07:23:37;-1.60;1.00
1049;DHT22;513;51.444;7.196;2022-12-18T07:26:06;-1.60;1.00
1049;DHT22;513;51.444;7.196;2022-12-18T07:28:34;-1.70;1.00
1049;DHT22;513;51.444;7.196;2022-12-18T07:31:03;-1.60;1.00
1049;DHT22;513;51.444;7.196;2022-12-18T07:33:30;-1.50;1.00
1049;DHT22;513;51.444;7.196;2022-12-18T07:35:58;-1.50;99.90
1049;DHT22;513;51.444;7.196;2022-12-18T07:38:25;-1.40;99.90
1049;DHT22;513;51.444;7.196;2022-12-18T07:40:52;-1.40;1.00
1049;DHT22;513;51.444;7.196;2022-12-18T07:43:20;-1.40;1.00
1049;DHT22;513;51.444;7.196;2022-12-18T07:45:49;-1.40;1.00
1049;DHT22;513;51.444;7.196;2022-12-18T07:48:15;-1.40;99.90
1049;DHT22;513;51.444;7.196;2022-12-18T07:50:42;-1.40;99.90
1049;DHT22;513;51.444;7.196;2022-12-18T07:53:09;-1.30;99.90
1049;DHT22;513;51.444;7.196;2022-12-18T07:55:36;-1.30;99.90
1049;DHT22;513;51.444;7.196;2022-12-18T07:58:03;-1.30;1.00
1049;DHT22;513;51.444;7.196;2022-12-18T08:00:31;-1.20;99.90
1049;DHT22;513;51.444;7.196;2022-12-18T08:02:58;-1.20;99.90
1049;DHT22;513;51.444;7.196;2022-12-18T08:05:24;-1.10;27.10
1049;DHT22;513;51.444;7.196;2022-12-18T08:07:51;-1.00;99.90
1049;DHT22;513;51.444;7.196;2022-12-18T08:10:18;-1.00;99.90
1049;DHT22;513;51.444;7.196;2022-12-18T08:12:45;-1.00;99.90
1049;DHT22;513;51.444;7.196;2022-12-18T08:15:15;-0.90;92.90
1049;DHT22;513;51.444;7.196;2022-12-18T08:17:43;-0.80;1.00
1049;DHT22;513;51.444;7.196;2022-12-18T08:20:10;-0.80;99.90
1049;DHT22;513;51.444;7.196;2022-12-18T08:22:37;-0.80;99.90
1049;DHT22;513;51.444;7.196;2022-12-18T08:25:05;-0.70;1.00
1049;DHT22;513;51.444;7.196;2022-12-18T08:27:31;-0.60;1.00
1049;DHT22;513;51.444;7.196;2022-12-18T08:29:58;-0.50;1.00
1049;DHT22;513;51.444;7.196;2022-12-18T08:32:25;-0.30;99.90
1049;DHT22;513;51.444;7.196;2022-12-18T08:34:53;-0.30;99.90
1049;DHT22;513;51.444;7.196;2022-12-18T08:37:20;-0.10;14.60
1049;DHT22;513;51.444;7.196;2022-12-18T08:39:47;0.00;1.00
1049;DHT22;513;51.444;7.196;2022-12-18T08:42:13;0.10;1.00
1049;DHT22;513;51.444;7.196;2022-12-18T08:44:57;0.20;99.90
1049;DHT22;513;51.444;7.196;2022-12-18T08:47:24;0.30;99.90
1049;DHT22;513;51.444;7.196;2022-12-18T08:49:52;0.50;99.90
1049;DHT22;513;51.444;7.196;2022-12-18T08:52:19;0.60;99.90
1049;DHT22;513;51.444;7.196;2022-12-18T08:54:46;0.60;99.90
1049;DHT22;513;51.444;7.196;2022-12-18T08:57:12;0.70;59.20
1049;DHT22;513;51.444;7.196;2022-12-18T08:59:39;0.80;62.90
1049;DHT22;513;51.444;7.196;2022-12-18T09:02:06;0.90;21.00
1049;DHT22;513;51.444;7.196;2022-12-18T09:04:32;1.00;1.00
1049;DHT22;513;51.444;7.196;2022-12-18T09:07:00;1.10;1.00
1049;DHT22;513;51.444;7.196;2022-12-18T09:09:27;1.10;1.00
1049;DHT22;513;51.444;7.196;2022-12-18T09:11:54;1.30;1.00
1049;DHT22;513;51.444;7.196;2022-12-18T09:14:20;1.40;1.00
1049;DHT22;513;51.444;7.196;2022-12-18T09:16:47;1.40;1.00
1049;DHT22;513;51.444;7.196;2022-12-18T09:19:14;1.50;1.00
1049;DHT22;513;51.444;7.196;2022-12-18T09:21:44;1.50;1.00
1049;DHT22;513;51.444;7.196;2022-12-18T09:24:13;1.70;1.00
1049;DHT22;513;51.444;7.196;2022-12-18T09:26:40;1.70;1.00
1049;DHT22;513;51.444;7.196;2022-12-18T09:29:06;1.60;1.00
1049;DHT22;513;51.444;7.196;2022-12-18T09:31:34;1.60;1.00
1049;DHT22;513;51.444;7.196;2022-12-18T09:34:01;1.70;1.00
1049;DHT22;513;51.444;7.196;2022-12-18T09:36:28;1.70;1.00
1049;DHT22;513;51.444;7.196;2022-12-18T09:38:54;1.80;1.00
1049;DHT22;513;51.444;7.196;2022-12-18T09:41:36;1.90;1.00
1049;DHT22;513;51.444;7.196;2022-12-18T09:44:19;2.00;1.00
1049;DHT22;513;51.444;7.196;2022-12-18T09:46:51;2.10;1.00
1049;DHT22;513;51.444;7.196;2022-12-18T09:49:22;2.10;99.90
1049;DHT22;513;51.444;7.196;2022-12-18T09:51:53;2.10;99.90
1049;DHT22;513;51.444;7.196;2022-12-18T09:54:24;2.20;99.90
1049;DHT22;513;51.444;7.196;2022-12-18T09:56:53;2.20;99.90
1049;DHT22;513;51.444;7.196;2022-12-18T09:59:24;2.20;99.90
1049;DHT22;513;51.444;7.196;2022-12-18T10:01:52;2.20;99.90
1049;DHT22;513;51.444;7.196;2022-12-18T10:04:19;2.30;99.90
1049;DHT22;513;51.444;7.196;2022-12-18T10:06:50;2.30;99.90
1049;DHT22;513;51.444;7.196;2022-12-18T10:09:27;2.40;99.90
1049;DHT22;513;51.444;7.196;2022-12-18T10:12:02;2.40;99.90
1049;DHT22;513;51.444;7.196;2022-12-18T10:14:39;2.40;99.90
1049;DHT22;513;51.444;7.196;2022-12-18T10:17:13;2.40;99.90
1049;DHT22;513;51.444;7.196;2022-12-18T10:19:46;2.40;99.90
1049;DHT22;513;51.444;7.196;2022-12-18T10:22:28;2.30;99.90
1049;DHT22;513;51.444;7.196;2022-12-18T10:25:03;2.30;99.90
1049;DHT22;513;51.444;7.196;2022-12-18T10:27:33;2.40;99.90
1049;DHT22;513;51.444;7.196;2022-12-18T10:30:00;2.40;99.90
1049;DHT22;513;51.444;7.196;2022-12-18T10:32:29;2.40;99.90
1049;DHT22;513;51.444;7.196;2022-12-18T10:34:57;2.40;99.90
1049;DHT22;513;51.444;7.196;2022-12-18T10:37:25;2.40;99.90
1049;DHT22;513;51.444;7.196;2022-12-18T10:40:08;2.50;99.90
1049;DHT22;513;51.444;7.196;2022-12-18T10:42:36;2.50;99.90
1049;DHT22;513;51.444;7.196;2022-12-18T10:45:09;2.50;99.90
1049;DHT22;513;51.444;7.196;2022-12-18T10:47:35;2.60;99.90
1049;DHT22;513;51.444;7.196;2022-12-18T10:50:03;2.60;99.90
1049;DHT22;513;51.444;7.196;2022-12-18T10:52:30;2.60;99.90
1049;DHT22;513;51.444;7.196;2022-12-18T10:54:59;2.60;99.90
1049;DHT22;513;51.444;7.196;2022-12-18T10:57:33;2.70;99.90
1049;DHT22;513;51.444;7.196;2022-12-18T11:00:22;2.70;99.90
1049;DHT22;513;51.444;7.196;2022-12-18T11:02:49;2.70;99.90
1049;DHT22;513;51.444;7.196;2022-12-18T11:05:28;2.70;99.90
1049;DHT22;513;51.444;7.196;2022-12-18T11:07:55;2.80;99.90
1049;DHT22;513;51.444;7.196;2022-12-18T11:10:25;2.80;99.90
1049;DHT22;513;51.444;7.196;2022-12-18T11:12:52;2.80;99.90
1049;DHT22;513;51.444;7.196;2022-12-18T11:15:23;2.80;99.90
1049;DHT22;513;51.444;7.196;2022-12-18T11:17:51;2.90;99.90
1049;DHT22;513;51.444;7.196;2022-12-18T11:20:29;2.90;99.90
1049;DHT22;513;51.444;7.196;2022-12-18T11:22:59;2.90;99.90
1049;DHT22;513;51.444;7.196;2022-12-18T11:25:27;2.90;99.90
1049;DHT22;513;51.444;7.196;2022-12-18T11:27:55;2.90;99.90
1049;DHT22;513;51.444;7.196;2022-12-18T11:30:26;2.90;99.90
1049;DHT22;513;51.444;7.196;2022-12-18T11:32:56;2.90;99.90
1049;DHT22;513;51.444;7.196;2022-12-18T11:35:35;3.00;99.90
1049;DHT22;513;51.444;7.196;2022-12-18T11:38:06;3.00;99.90
1049;DHT22;513;51.444;7.196;2022-12-18T11:40:41;3.10;99.90
1049;DHT22;513;51.444;7.196;2022-12-18T11:43:11;3.20;99.90
1049;DHT22;513;51.444;7.196;2022-12-18T11:45:47;3.10;99.90
1049;DHT22;513;51.444;7.196;2022-12-18T11:48:18;3.10;99.90
1049;DHT22;513;51.444;7.196;2022-12-18T11:50:50;3.20;99.90
1049;DHT22;513;51.444;7.196;2022-12-18T11:53:17;3.20;99.90
1049;DHT22;513;51.444;7.196;2022-12-18T11:55:50;3.20;99.90
1049;DHT22;513;51.444;7.196;2022-12-18T11:58:32;3.30;99.90
1049;DHT22;513;51.444;7.196;2022-12-18T12:01:15;3.30;99.90
1049;DHT22;513;51.444;7.196;2022-12-18T12:04:01;3.20;99.90
1049;DHT22;513;51.444;7.196;2022-12-18T12:06:34;3.30;99.90
1049;DHT22;513;51.444;7.196;2022-12-18T12:09:11;3.30;99.90
1049;DHT22;513;51.444;7.196;2022-12-18T12:11:50;3.30;99.90
1049;DHT22;513;51.444;7.196;2022-12-18T12:14:28;3.40;99.90
1049;DHT22;513;51.444;7.196;2022-12-18T12:17:05;3.40;99.90
1049;DHT22;513;51.444;7.196;2022-12-18T12:19:45;3.50;99.90
1049;DHT22;513;51.444;7.196;2022-12-18T12:22:21;3.40;99.90
1049;DHT22;513;51.444;7.196;2022-12-18T12:24:59;3.40;99.90
1049;DHT22;513;51.444;7.196;2022-12-18T12:27:37;3.30;99.90
1049;DHT22;513;51.444;7.196;2022-12-18T12:30:08;3.40;99.90
1049;DHT22;513;51.444;7.196;2022-12-18T12:32:49;3.30;99.90
1049;DHT22;513;51.444;7.196;2022-12-18T12:35:28;3.30;99.90
1049;DHT22;513;51.444;7.196;2022-12-18T12:38:05;3.40;99.90
1049;DHT22;513;51.444;7.196;2022-12-18T12:40:37;3.30;99.90
1049;DHT22;513;51.444;7.196;2022-12-18T12:43:18;3.30;99.90
1049;DHT22;513;51.444;7.196;2022-12-18T12:45:48;3.30;99.90
1049;DHT22;513;51.444;7.196;2022-12-18T12:48:23;3.30;99.90
1049;DHT22;513;51.444;7.196;2022-12-18T12:50:54;3.30;99.90
1049;DHT22;513;51.444;7.196;2022-12-18T12:53:25;3.20;99.90
1049;DHT22;513;51.444;7.196;2022-12-18T12:55:52;3.20;99.90
1049;DHT22;513;51.444;7.196;2022-12-18T12:58:28;3.20;99.90
1049;DHT22;513;51.444;7.196;2022-12-18T13:01:05;3.20;99.90
1049;DHT22;513;51.444;7.196;2022-12-18T13:03:42;3.20;99.90
1049;DHT22;513;51.444;7.196;2022-12-18T13:06:15;3.10;99.90
1049;DHT22;513;51.444;7.196;2022-12-18T13:08:55;3.10;99.90
1049;DHT22;513;51.444;7.196;2022-12-18T13:11:35;3.00;99.90
1049;DHT22;513;51.444;7.196;2022-12-18T13:14:22;2.90;99.90
1049;DHT22;513;51.444;7.196;2022-12-18T13:16:49;2.90;99.90
1049;DHT22;513;51.444;7.196;2022-12-18T13:19:23;2.80;99.90
1049;DHT22;513;51.444;7.196;2022-12-18T13:21:53;2.70;99.90
1049;DHT22;513;51.444;7.196;2022-12-18T13:24:24;2.70;99.90
1049;DHT22;513;51.444;7.196;2022-12-18T13:26:51;2.70;99.90
1049;DHT22;513;51.444;7.196;2022-12-18T13:29:41;2.60;99.90
1049;DHT22;513;51.444;7.196;2022-12-18T13:32:20;2.50;99.90
1049;DHT22;513;51.444;7.196;2022-12-18T13:34:49;2.50;99.90
1049;DHT22;513;51.444;7.196;2022-12-18T13:37:54;2.30;99.90
1049;DHT22;513;51.444;7.196;2022-12-18T13:40:54;2.30;99.90
1049;DHT22;513;51.444;7.196;2022-12-18T13:43:37;2.20;99.90
1049;DHT22;513;51.444;7.196;2022-12-18T13:46:18;2.20;99.90
1049;DHT22;513;51.444;7.196;2022-12-18T13:48:54;2.10;99.90
1049;DHT22;513;51.444;7.196;2022-12-18T13:51:24;2.10;99.90
1049;DHT22;513;51.444;7.196;2022-12-18T13:53:53;2.00;99.90
1049;DHT22;513;51.444;7.196;2022-12-18T13:56:23;2.00;99.90
1049;DHT22;513;51.444;7.196;2022-12-18T13:59:12;2.00;99.90
1049;DHT22;513;51.444;7.196;2022-12-18T14:01:43;2.00;99.90
1049;DHT22;513;51.444;7.196;2022-12-18T14:04:11;1.90;99.90
1049;DHT22;513;51.444;7.196;2022-12-18T14:06:40;2.00;99.90
1049;DHT22;513;51.444;7.196;2022-12-18T14:09:13;1.90;99.90
1049;DHT22;513;51.444;7.196;2022-12-18T14:11:45;1.80;99.90
1049;DHT22;513;51.444;7.196;2022-12-18T14:14:14;1.80;99.90
1049;DHT22;513;51.444;7.196;2022-12-18T14:16:41;1.80;99.90
1049;DHT22;513;51.444;7.196;2022-12-18T14:19:12;1.80;99.90
1049;DHT22;513;51.444;7.196;2022-12-18T14:21:46;1.80;99.90
1049;DHT22;513;51.444;7.196;2022-12-18T14:24:14;1.80;99.90
1049;DHT22;513;51.444;7.196;2022-12-18T14:26:41;1.80;99.90
1049;DHT22;513;51.444;7.196;2022-12-18T14:29:22;1.80;99.90
1049;DHT22;513;51.444;7.196;2022-12-18T14:32:10;1.70;99.90
1049;DHT22;513;51.444;7.196;2022-12-18T14:34:37;1.70;99.90
1049;DHT22;513;51.444;7.196;2022-12-18T14:37:07;1.70;99.90
1049;DHT22;513;51.444;7.196;2022-12-18T14:39:35;1.70;99.90
1049;DHT22;513;51.444;7.196;2022-12-18T14:42:02;1.80;99.90
1049;DHT22;513;51.444;7.196;2022-12-18T14:44:29;1.70;99.90
1049;DHT22;513;51.444;7.196;2022-12-18T14:46:56;1.70;99.90
1049;DHT22;513;51.444;7.196;2022-12-18T14:49:26;1.70;99.90
1049;DHT22;513;51.444;7.196;2022-12-18T14:51:54;1.60;99.90
1049;DHT22;513;51.444;7.196;2022-12-18T14:54:24;1.70;99.90
1049;DHT22;513;51.444;7.196;2022-12-18T14:57:00;1.60;99.90
1049;DHT22;513;51.444;7.196;2022-12-18T14:59:29;1.60;99.90
1049;DHT22;513;51.444;7.196;2022-12-18T15:02:02;1.60;99.90
1049;DHT22;513;51.444;7.196;2022-12-18T15:04:32;1.70;99.90
1049;DHT22;513;51.444;7.196;2022-12-18T15:07:13;1.60;99.90
1049;DHT22;513;51.444;7.196;2022-12-18T15:09:43;1.70;99.90
1049;DHT22;513;51.444;7.196;2022-12-18T15:12:24;1.70;99.90
1049;DHT22;513;51.444;7.196;2022-12-18T15:14:52;1.60;99.90
1049;DHT22;513;51.444;7.196;2022-12-18T15:17:21;1.60;99.90
1049;DHT22;513;51.444;7.196;2022-12-18T15:19:50;1.50;99.90
1049;DHT22;513;51.444;7.196;2022-12-18T15:22:21;1.50;99.90
1049;DHT22;513;51.444;7.196;2022-12-18T15:24:49;1.50;99.90
1049;DHT22;513;51.444;7.196;2022-12-18T15:27:30;1.40;99.90
1049;DHT22;513;51.444;7.196;2022-12-18T15:30:19;1.40;99.90
1049;DHT22;513;51.444;7.196;2022-12-18T15:32:48;1.40;99.90
1049;DHT22;513;51.444;7.196;2022-12-18T15:35:18;1.40;99.90
1049;DHT22;513;51.444;7.196;2022-12-18T15:37:45;1.30;99.90
1049;DHT22;513;51.444;7.196;2022-12-18T15:40:15;1.30;99.90
1049;DHT22;513;51.444;7.196;2022-12-18T15:42:42;1.30;99.90
1049;DHT22;513;51.444;7.196;2022-12-18T15:45:27;1.20;1.00
1049;DHT22;513;51.444;7.196;2022-12-18T15:47:54;1.20;1.00
1049;DHT22;513;51.444;7.196;2022-12-18T15:50:21;1.20;1.00
1049;DHT22;513;51.444;7.196;2022-12-18T15:52:49;1.20;1.00
1049;DHT22;513;51.444;7.196;2022-12-18T15:55:20;1.10;1.00
1049;DHT22;513;51.444;7.196;2022-12-18T15:58:05;1.10;1.00
1049;DHT22;513;51.444;7.196;2022-12-18T16:00:32;1.10;1.00
1049;DHT22;513;51.444;7.196;2022-12-18T16:03:00;1.00;1.00
1049;DHT22;513;51.444;7.196;2022-12-18T16:05:28;1.00;1.00
1049;DHT22;513;51.444;7.196;2022-12-18T16:07:55;1.00;1.00
1049;DHT22;513;51.444;7.196;2022-12-18T16:10:24;1.00;1.00
1049;DHT22;513;51.444;7.196;2022-12-18T16:12:50;1.00;1.00
1049;DHT22;513;51.444;7.196;2022-12-18T16:15:17;1.00;1.00
1049;DHT22;513;51.444;7.196;2022-12-18T16:17:45;1.00;1.00
1049;DHT22;513;51.444;7.196;2022-12-18T16:20:13;0.90;36.70
1049;DHT22;513;51.444;7.196;2022-12-18T16:22:41;0.90;91.40
1049;DHT22;513;51.444;7.196;2022-12-18T16:25:15;0.90;99.90
1049;DHT22;513;51.444;7.196;2022-12-18T16:27:43;0.90;99.90
1049;DHT22;513;51.444;7.196;2022-12-18T16:30:13;0.90;99.90
1049;DHT22;513;51.444;7.196;2022-12-18T16:32:40;0.80;99.90
1049;DHT22;513;51.444;7.196;2022-12-18T16:35:08;0.80;99.90
1049;DHT22;513;51.444;7.196;2022-12-18T16:37:35;0.70;99.90
1049;DHT22;513;51.444;7.196;2022-12-18T16:40:02;0.70;99.90
1049;DHT22;513;51.444;7.196;2022-12-18T16:42:28;0.70;1.00
1049;DHT22;513;51.444;7.196;2022-12-18T16:44:56;0.70;1.00
1049;DHT22;513;51.444;7.196;2022-12-18T16:47:23;0.70;1.00
1049;DHT22;513;51.444;7.196;2022-12-18T16:49:50;0.70;24.20